createdAt,value
2022-11-19T00:00:12.938Z,99710.55
2022-11-19T00:02:42.698Z,99712.82
2022-11-19T00:05:12.456Z,99709.83
2022-11-19T00:07:41.972Z,99716.41
2022-11-19T00:10:11.455Z,99705.38
2022-11-19T00:12:55.812Z,99713.48
2022-11-19T00:15:25.645Z,99713.56
2022-11-19T00:17:55.360Z,99716.55
2022-11-19T00:20:25.250Z,99714.00
2022-11-19T00:22:57.130Z,99714.00
2022-11-19T00:25:29.362Z,99719.28
2022-11-19T00:27:59.767Z,99729.08
2022-11-19T00:33:00.554Z,99737.53
2022-11-19T00:35:30.009Z,99728.25
2022-11-19T00:37:59.489Z,99732.38
2022-11-19T00:40:28.950Z,99735.70
2022-11-19T00:43:15.733Z,99741.98
2022-11-19T00:45:45.261Z,99741.30
2022-11-19T00:48:14.730Z,99742.02
2022-11-19T00:50:44.214Z,99746.64
2022-11-19T00:53:13.734Z,99743.08
2022-11-19T00:55:43.214Z,99746.00
2022-11-19T00:58:13.015Z,99745.75
2022-11-19T01:00:42.559Z,99747.80
2022-11-19T01:03:12.379Z,99734.41
2022-11-19T01:05:41.923Z,99744.41
2022-11-19T01:08:11.453Z,99748.66
2022-11-19T01:10:41.445Z,99748.97
2022-11-19T01:13:29.210Z,99752.45
2022-11-19T01:15:59.123Z,99748.00
2022-11-19T01:18:29.165Z,99745.45
2022-11-19T01:20:58.690Z,99746.39
2022-11-19T01:23:28.335Z,99746.70
2022-11-19T01:25:57.871Z,99743.91
2022-11-19T01:28:27.350Z,99744.14
2022-11-19T01:30:56.826Z,99746.33
2022-11-19T01:33:26.649Z,99743.61
2022-11-19T01:35:57.667Z,99753.20
2022-11-19T01:38:28.641Z,99745.39
2022-11-19T01:40:59.156Z,99742.84
2022-11-19T01:43:43.639Z,99746.70
2022-11-19T01:46:15.918Z,99756.72
2022-11-19T01:48:53.986Z,99759.42
2022-11-19T01:51:29.381Z,99757.28
2022-11-19T01:54:01.901Z,99757.61
2022-11-19T01:56:32.292Z,99754.63
2022-11-19T01:59:10.603Z,99759.67
2022-11-19T02:01:40.152Z,99760.52
2022-11-19T02:04:10.163Z,99768.29
2022-11-19T02:06:40.556Z,99771.23
2022-11-19T02:09:10.086Z,99782.90
2022-11-19T02:11:51.490Z,99787.48
2022-11-19T02:14:50.441Z,99790.81
2022-11-19T02:17:29.051Z,99794.16
2022-11-19T02:20:21.570Z,99788.84
2022-11-19T02:23:08.836Z,99789.25
2022-11-19T02:25:50.189Z,99795.81
2022-11-19T02:28:51.470Z,99798.84
2022-11-19T02:31:24.298Z,99793.17
2022-11-19T02:34:02.368Z,99797.11
2022-11-19T02:36:34.887Z,99792.20
2022-11-19T02:39:24.889Z,99791.30
2022-11-19T02:42:03.220Z,99800.02
2022-11-19T02:44:56.181Z,99794.92
2022-11-19T02:47:31.957Z,99801.33
2022-11-19T02:50:04.774Z,99802.12
2022-11-19T02:52:34.909Z,99801.55
2022-11-19T02:55:04.808Z,99798.59
2022-11-19T02:57:36.168Z,99805.11
2022-11-19T03:00:26.027Z,99806.53
2022-11-19T03:03:22.476Z,99807.79
2022-11-19T03:05:55.157Z,99803.73
2022-11-19T03:08:25.283Z,99810.30
2022-11-19T03:10:57.827Z,99806.49
2022-11-19T03:13:48.294Z,99812.34
2022-11-19T03:16:38.269Z,99812.34
2022-11-19T03:19:27.119Z,99810.25
2022-11-19T03:21:59.646Z,99808.86
2022-11-19T03:24:46.780Z,99799.70
2022-11-19T03:27:25.408Z,99803.36
2022-11-19T03:29:59.693Z,99814.16
2022-11-19T03:32:35.267Z,99814.77
2022-11-19T03:35:12.079Z,99822.98
2022-11-19T03:37:45.116Z,99826.88
2022-11-19T03:40:17.224Z,99823.34
2022-11-19T03:42:49.839Z,99829.91
2022-11-19T03:45:22.623Z,99832.63
2022-11-19T03:47:54.658Z,99835.13
2022-11-19T03:50:33.473Z,99837.08
2022-11-19T03:53:04.701Z,99843.03
2022-11-19T03:55:37.433Z,99841.48
2022-11-19T03:58:08.654Z,99842.02
2022-11-19T04:00:38.605Z,99842.42
2022-11-19T04:03:08.388Z,99841.05
2022-11-19T04:05:37.950Z,99838.69
2022-11-19T04:08:07.432Z,99842.28
2022-11-19T04:10:37.173Z,99847.42
2022-11-19T04:13:06.989Z,99844.56
2022-11-19T04:15:36.472Z,99843.41
2022-11-19T04:18:06.520Z,99846.34
2022-11-19T04:20:36.108Z,99851.47
2022-11-19T04:23:06.509Z,99851.97
2022-11-19T04:25:36.010Z,99855.84
2022-11-19T04:28:06.611Z,99855.66
2022-11-19T04:30:36.382Z,99868.73
2022-11-19T04:33:06.660Z,99870.61
2022-11-19T04:35:36.159Z,99872.16
2022-11-19T04:38:06.787Z,99874.64
2022-11-19T04:40:36.302Z,99878.31
2022-11-19T04:43:06.959Z,99880.69
2022-11-19T04:45:36.622Z,99887.02
2022-11-19T04:48:06.456Z,99882.91
2022-11-19T04:50:36.189Z,99883.34
2022-11-19T04:53:06.346Z,99880.14
2022-11-19T04:55:35.840Z,99882.95
2022-11-19T04:58:06.539Z,99883.52
2022-11-19T05:00:36.106Z,99879.64
2022-11-19T05:03:06.582Z,99874.56
2022-11-19T05:05:36.071Z,99875.95
2022-11-19T05:08:07.389Z,99876.11
2022-11-19T05:10:37.491Z,99884.61
2022-11-19T05:13:07.045Z,99889.05
2022-11-19T05:15:37.012Z,99896.88
2022-11-19T05:18:06.580Z,99898.25
2022-11-19T05:20:36.417Z,99896.51
2022-11-19T05:23:06.462Z,99898.76
2022-11-19T05:25:35.952Z,99896.62
2022-11-19T05:28:06.617Z,99895.73
2022-11-19T05:30:36.394Z,99898.81
2022-11-19T05:33:06.875Z,99901.86
2022-11-19T05:35:36.611Z,99903.98
2022-11-19T05:38:08.408Z,99905.32
2022-11-19T05:40:38.124Z,99905.32
2022-11-19T05:43:08.086Z,99899.14
2022-11-19T05:45:37.567Z,99910.56
2022-11-19T05:48:07.635Z,99909.87
2022-11-19T05:50:37.116Z,99911.36
2022-11-19T05:53:06.790Z,99912.50
2022-11-19T05:55:36.343Z,99910.44
2022-11-19T05:58:06.760Z,99919.95
2022-11-19T06:00:36.357Z,99931.72
2022-11-19T06:03:06.989Z,99929.90
2022-11-19T06:05:40.355Z,99931.28
2022-11-19T06:08:08.008Z,99941.38
2022-11-19T06:10:37.697Z,99945.96
2022-11-19T06:13:07.243Z,99944.77
2022-11-19T06:15:37.010Z,99951.61
2022-11-19T06:18:06.887Z,99945.89
2022-11-19T06:20:36.557Z,99939.08
2022-11-19T06:23:06.287Z,99954.61
2022-11-19T06:25:35.922Z,99953.80
2022-11-19T06:28:06.453Z,99954.73
2022-11-19T06:30:35.997Z,99955.29
2022-11-19T06:33:06.699Z,99952.73
2022-11-19T06:35:36.184Z,99956.58
2022-11-19T06:38:06.673Z,99956.58
2022-11-19T06:40:36.180Z,99957.41
2022-11-19T06:43:06.760Z,99962.41
2022-11-19T06:45:36.259Z,99965.06
2022-11-19T06:48:06.862Z,99972.41
2022-11-19T06:50:36.353Z,99974.52
2022-11-19T06:53:07.893Z,99971.95
2022-11-19T06:55:37.932Z,99975.30
2022-11-19T06:58:09.086Z,99971.37
2022-11-19T07:00:37.912Z,99975.68
2022-11-19T07:03:07.695Z,99976.05
2022-11-19T07:05:37.826Z,99967.40
2022-11-19T07:08:07.345Z,99974.62
2022-11-19T07:10:37.509Z,99974.92
2022-11-19T07:13:07.142Z,99981.67
2022-11-19T07:15:36.744Z,99977.80
2022-11-19T07:18:06.774Z,99979.51
2022-11-19T07:20:36.340Z,99985.58
2022-11-19T07:23:11.940Z,99978.67
2022-11-19T07:25:41.445Z,99979.78
2022-11-19T07:28:10.926Z,99982.06
2022-11-19T07:30:40.435Z,99976.09
2022-11-19T07:33:10.236Z,99985.97
2022-11-19T07:35:39.783Z,99982.86
2022-11-19T07:38:09.371Z,99980.05
2022-11-19T07:40:38.866Z,99985.54
2022-11-19T07:43:08.666Z,99987.47
2022-11-19T07:45:38.941Z,99987.47
2022-11-19T07:48:08.433Z,99988.69
2022-11-19T07:50:37.941Z,99991.94
2022-11-19T07:53:08.009Z,99987.45
2022-11-19T07:55:38.445Z,99982.98
2022-11-19T07:58:08.270Z,99981.41
2022-11-19T08:00:37.853Z,99988.94
2022-11-19T08:03:07.615Z,99982.89
2022-11-19T08:05:39.984Z,99981.77
2022-11-19T08:08:09.543Z,99988.59
2022-11-19T08:10:39.024Z,99992.77
2022-11-19T08:13:08.654Z,99989.38
2022-11-19T08:15:38.141Z,99979.36
2022-11-19T08:18:13.310Z,99987.66
2022-11-19T08:20:44.249Z,99976.73
2022-11-19T08:23:13.998Z,99980.79
2022-11-19T08:25:46.883Z,99977.98
2022-11-19T08:28:16.966Z,99975.11
2022-11-19T08:30:46.680Z,99970.91
2022-11-19T08:33:16.514Z,99970.91
2022-11-19T08:35:46.071Z,99970.23
2022-11-19T08:38:15.758Z,99964.34
2022-11-19T08:40:48.607Z,99964.53
2022-11-19T08:43:18.128Z,99965.61
2022-11-19T08:45:56.917Z,99971.37
2022-11-19T08:48:27.040Z,99967.69
2022-11-19T08:50:57.064Z,99967.48
2022-11-19T08:53:27.173Z,99976.28
2022-11-19T08:55:56.966Z,99977.77
2022-11-19T08:58:26.873Z,99977.98
2022-11-19T09:00:56.717Z,99977.98
2022-11-19T09:03:26.622Z,99977.19
2022-11-19T09:06:02.644Z,99973.81
2022-11-19T09:08:33.480Z,99986.75
2022-11-19T09:11:11.395Z,99990.52
2022-11-19T09:13:41.470Z,99992.89
2022-11-19T09:16:12.009Z,99994.42
2022-11-19T09:18:42.456Z,99990.39
2022-11-19T09:21:13.166Z,99990.39
2022-11-19T09:23:42.938Z,99992.73
2022-11-19T09:26:17.797Z,99993.77
2022-11-19T09:28:48.044Z,100001.09
2022-11-19T09:31:19.633Z,99997.59
2022-11-19T09:33:51.363Z,100001.70
2022-11-19T09:36:21.988Z,100000.42
2022-11-19T09:38:53.471Z,99991.73
2022-11-19T09:41:26.329Z,99988.14
2022-11-19T09:44:22.035Z,99983.43
2022-11-19T09:46:58.194Z,99984.91
2022-11-19T09:49:33.743Z,99987.88
2022-11-19T09:52:06.550Z,99982.52
2022-11-19T09:54:38.216Z,99982.52
2022-11-19T09:57:10.737Z,99995.94
2022-11-19T09:59:42.358Z,99993.16
2022-11-19T10:02:18.375Z,99983.98
2022-11-19T10:04:50.238Z,99982.73
2022-11-19T10:07:31.548Z,99984.53
2022-11-19T10:10:27.994Z,99981.96
2022-11-19T10:13:21.792Z,99978.61
2022-11-19T10:16:00.153Z,99984.59
2022-11-19T10:18:35.751Z,99991.19
2022-11-19T10:21:15.842Z,99989.75
2022-11-19T10:23:52.825Z,99989.53
2022-11-19T10:26:37.227Z,99986.08
2022-11-19T10:29:21.761Z,99984.14
2022-11-19T10:31:52.900Z,99977.66
2022-11-19T10:34:27.211Z,99976.64
2022-11-19T10:37:02.550Z,99957.33
2022-11-19T10:40:08.536Z,99957.33
2022-11-19T10:42:44.239Z,99968.91
2022-11-19T10:45:19.448Z,99971.59
2022-11-19T10:48:05.922Z,99967.05
2022-11-19T10:50:32.243Z,99959.53
2022-11-19T10:53:11.333Z,99958.62
2022-11-19T10:55:43.499Z,99960.00
2022-11-19T10:58:19.355Z,99960.49
2022-11-19T11:00:50.019Z,99962.50
2022-11-19T11:03:34.374Z,99966.80
2022-11-19T11:06:09.218Z,99965.02
2022-11-19T11:08:56.416Z,99964.55
2022-11-19T11:11:50.008Z,99964.00
2022-11-19T11:14:41.011Z,99963.13
2022-11-19T11:17:25.893Z,99957.97
2022-11-19T11:20:10.631Z,99953.05
2022-11-19T11:22:40.744Z,99947.55
2022-11-19T11:25:25.204Z,99948.14
2022-11-19T11:28:19.241Z,99936.89
2022-11-19T11:31:04.351Z,99933.45
2022-11-19T11:33:38.500Z,99935.05
2022-11-19T11:36:11.333Z,99931.05
2022-11-19T11:38:49.780Z,99930.94
2022-11-19T11:44:02.003Z,99919.92
2022-11-19T11:46:51.051Z,99915.30
2022-11-19T11:49:26.860Z,99924.94
2022-11-19T11:51:59.685Z,99930.23
2022-11-19T11:54:29.665Z,99930.95
2022-11-19T11:57:20.193Z,99929.33
2022-11-19T11:59:50.422Z,99928.78
2022-11-19T12:02:23.472Z,99925.98
2022-11-19T12:04:54.814Z,99922.11
2022-11-19T12:07:30.283Z,99923.38
2022-11-19T12:10:03.648Z,99915.35
2022-11-19T12:12:47.682Z,99916.98
2022-11-19T12:15:26.003Z,99920.45
2022-11-19T12:18:07.611Z,99923.06
2022-11-19T12:20:40.498Z,99929.75
2022-11-19T12:23:28.335Z,99925.94
2022-11-19T12:26:08.530Z,99929.97
2022-11-19T12:28:41.347Z,99935.16
2022-11-19T12:31:29.785Z,99933.99
2022-11-19T12:34:17.735Z,99927.03
2022-11-19T12:36:58.723Z,99921.03
2022-11-19T12:39:49.386Z,99922.73
2022-11-19T12:42:44.262Z,99921.72
2022-11-19T12:45:44.163Z,99920.94
2022-11-19T12:48:49.862Z,99926.94
2022-11-19T12:51:31.251Z,99930.58
2022-11-19T12:54:34.874Z,99928.09
2022-11-19T12:57:36.893Z,99924.36
2022-11-19T13:00:15.415Z,99918.09
2022-11-19T13:02:59.776Z,99922.39
2022-11-19T13:05:44.628Z,99922.44
2022-11-19T13:08:35.452Z,99911.92
2022-11-19T13:11:11.821Z,99908.36
2022-11-19T13:13:44.624Z,99912.44
2022-11-19T13:16:17.599Z,99911.08
2022-11-19T13:18:50.527Z,99904.67
2022-11-19T13:21:26.152Z,99905.30
2022-11-19T13:23:57.773Z,99903.71
2022-11-19T13:26:30.597Z,99900.83
2022-11-19T13:29:18.248Z,99902.50
2022-11-19T13:31:53.864Z,99901.34
2022-11-19T13:34:29.091Z,99905.30
2022-11-19T13:37:19.730Z,99909.63
2022-11-19T13:39:52.333Z,99903.97
2022-11-19T13:42:41.427Z,99904.67
2022-11-19T13:45:18.869Z,99898.70
2022-11-19T13:47:56.864Z,99900.06
2022-11-19T13:50:31.807Z,99897.98
2022-11-19T13:53:04.628Z,99886.95
2022-11-19T13:55:40.232Z,99883.56
2022-11-19T13:58:21.969Z,99883.56
2022-11-19T14:01:11.399Z,99887.97
2022-11-19T14:04:13.950Z,99890.45
2022-11-19T14:06:47.081Z,99868.19
2022-11-19T14:09:40.256Z,99893.29
2022-11-19T14:12:27.451Z,99896.23
2022-11-19T14:15:32.863Z,99892.25
2022-11-19T14:18:23.232Z,99893.95
2022-11-19T14:21:06.797Z,99895.33
2022-11-19T14:24:04.543Z,99897.59
2022-11-19T14:26:51.154Z,99900.50
2022-11-19T14:29:29.002Z,99901.86
2022-11-19T14:32:06.581Z,99908.14
2022-11-19T14:34:41.687Z,99902.75
2022-11-19T14:37:23.074Z,99904.54
2022-11-19T14:39:55.901Z,99899.39
2022-11-19T14:42:25.685Z,99900.50
2022-11-19T14:45:07.578Z,99898.11
2022-11-19T14:47:42.077Z,99896.61
2022-11-19T14:50:29.345Z,99889.27
2022-11-19T14:53:02.904Z,99890.52
2022-11-19T14:55:35.383Z,99889.73
2022-11-19T14:58:23.315Z,99893.24
2022-11-19T15:00:56.136Z,99893.26
2022-11-19T15:03:28.659Z,99896.63
2022-11-19T15:05:59.366Z,99894.50
2022-11-19T15:08:32.028Z,99894.40
2022-11-19T15:11:12.745Z,99885.84
2022-11-19T15:13:49.856Z,99886.80
2022-11-19T15:16:27.464Z,99883.30
2022-11-19T15:19:22.737Z,99885.45
2022-11-19T15:22:27.029Z,99880.14
2022-11-19T15:25:19.651Z,99886.44
2022-11-19T15:28:08.689Z,99885.58
2022-11-19T15:30:53.103Z,99878.25
2022-11-19T15:33:37.831Z,99895.06
2022-11-19T15:36:31.314Z,99887.12
2022-11-19T15:39:25.141Z,99885.64
2022-11-19T15:42:03.927Z,99891.34
2022-11-19T15:44:39.499Z,99885.09
2022-11-19T15:47:20.901Z,99879.72
2022-11-19T15:49:52.442Z,99877.05
2022-11-19T15:52:25.259Z,99868.16
2022-11-19T15:55:13.015Z,99879.37
2022-11-19T15:57:44.993Z,99874.99
2022-11-19T16:00:17.089Z,99875.22
2022-11-19T16:02:49.878Z,99867.69
2022-11-19T16:05:22.526Z,99867.08
2022-11-19T16:07:53.956Z,99871.95
2022-11-19T16:10:31.637Z,99875.22
2022-11-19T16:13:24.655Z,99875.22
2022-11-19T16:16:12.850Z,99879.09
2022-11-19T16:18:50.395Z,99884.62
2022-11-19T16:21:26.167Z,99878.84
2022-11-19T16:24:14.217Z,99880.16
2022-11-19T16:26:45.227Z,99873.02
2022-11-19T16:29:20.673Z,99879.64
2022-11-19T16:31:52.149Z,99875.78
2022-11-19T16:34:31.060Z,99872.88
2022-11-19T16:37:01.488Z,99877.08
2022-11-19T16:39:32.577Z,99881.64
2022-11-19T16:42:18.169Z,99879.59
2022-11-19T16:44:50.419Z,99882.96
2022-11-19T16:47:34.960Z,99887.09
2022-11-19T16:50:17.548Z,99879.14
2022-11-19T16:52:47.022Z,99879.86
2022-11-19T16:55:22.524Z,99880.75
2022-11-19T16:58:00.854Z,99877.88
2022-11-19T17:00:38.350Z,99880.44
2022-11-19T17:03:27.536Z,99885.27
2022-11-19T17:05:59.306Z,99876.84
2022-11-19T17:08:37.665Z,99876.84
2022-11-19T17:11:39.105Z,99881.63
2022-11-19T17:14:33.214Z,99880.22
2022-11-19T17:17:03.739Z,99877.08
2022-11-19T17:19:35.562Z,99886.47
2022-11-19T17:22:08.397Z,99886.47
2022-11-19T17:24:45.415Z,99885.80
2022-11-19T17:27:33.129Z,99891.21
2022-11-19T17:30:22.555Z,99888.62
2022-11-19T17:33:01.007Z,99892.91
2022-11-19T17:35:44.865Z,99896.67
2022-11-19T17:38:20.057Z,99891.17
2022-11-19T17:40:56.467Z,99892.72
2022-11-19T17:43:49.619Z,99896.41
2022-11-19T17:46:19.807Z,99891.99
2022-11-19T17:48:50.822Z,99895.73
2022-11-19T17:51:20.803Z,99898.52
2022-11-19T17:53:51.747Z,99899.17
2022-11-19T17:56:24.777Z,99895.77
2022-11-19T17:58:56.935Z,99901.77
2022-11-19T18:01:26.852Z,99905.82
2022-11-19T18:03:56.507Z,99908.33
2022-11-19T18:06:26.286Z,99905.08
2022-11-19T18:08:56.115Z,99909.06
2022-11-19T18:11:27.352Z,99906.58
2022-11-19T18:14:00.852Z,99916.98
2022-11-19T18:16:37.819Z,99913.32
2022-11-19T18:19:16.575Z,99921.38
2022-11-19T18:21:46.976Z,99918.32
2022-11-19T18:24:16.961Z,99922.98
2022-11-19T18:26:46.488Z,99926.02
2022-11-19T18:29:16.063Z,99929.95
2022-11-19T18:31:48.302Z,99923.67
2022-11-19T18:34:20.709Z,99927.85
2022-11-19T18:36:50.732Z,99924.59
2022-11-19T18:39:20.594Z,99926.45
2022-11-19T18:41:50.513Z,99924.63
2022-11-19T18:44:35.483Z,99924.06
2022-11-19T18:47:12.243Z,99926.92
2022-11-19T18:49:42.152Z,99928.05
2022-11-19T18:52:16.953Z,99931.95
2022-11-19T18:54:46.901Z,99929.88
2022-11-19T18:57:16.696Z,99932.94
2022-11-19T18:59:47.273Z,99933.12
2022-11-19T19:02:17.099Z,99936.25
2022-11-19T19:04:50.817Z,99941.81
2022-11-19T19:07:18.882Z,99941.81
2022-11-19T19:09:48.456Z,99943.83
2022-11-19T19:12:18.380Z,99945.75
2022-11-19T19:14:51.421Z,99946.38
2022-11-19T19:17:21.266Z,99942.22
2022-11-19T19:19:50.874Z,99947.23
2022-11-19T19:22:20.893Z,99947.33
2022-11-19T19:24:55.199Z,99946.03
2022-11-19T19:27:24.751Z,99949.23
2022-11-19T19:29:56.996Z,99949.52
2022-11-19T19:32:27.347Z,99954.92
2022-11-19T19:34:57.236Z,99952.34
2022-11-19T19:37:27.753Z,99948.64
2022-11-19T19:39:57.635Z,99945.47
2022-11-19T19:42:29.190Z,99944.77
2022-11-19T19:44:58.679Z,99949.03
2022-11-19T19:47:28.332Z,99947.74
2022-11-19T19:49:57.903Z,99944.77
2022-11-19T19:52:27.399Z,99944.59
2022-11-19T19:54:57.233Z,99925.26
2022-11-19T19:57:31.330Z,99938.50
2022-11-19T20:00:00.931Z,99948.97
2022-11-19T20:02:30.590Z,99949.35
2022-11-19T20:05:00.267Z,99956.73
2022-11-19T20:07:29.863Z,99961.05
2022-11-19T20:09:59.485Z,99960.47
2022-11-19T20:12:30.612Z,99960.95
2022-11-19T20:15:00.344Z,99962.62
2022-11-19T20:17:30.027Z,99952.38
2022-11-19T20:19:59.514Z,99953.70
2022-11-19T20:22:29.532Z,99957.33
2022-11-19T20:24:59.204Z,99961.77
2022-11-19T20:27:28.924Z,99962.68
2022-11-19T20:29:58.525Z,99959.62
2022-11-19T20:32:28.195Z,99961.80
2022-11-19T20:34:57.733Z,99956.69
2022-11-19T20:37:27.402Z,99964.03
2022-11-19T20:39:57.849Z,99961.01
2022-11-19T20:42:45.300Z,99955.89
2022-11-19T20:45:15.148Z,99958.06
2022-11-19T20:47:44.676Z,99947.93
2022-11-19T20:50:14.748Z,99949.69
2022-11-19T20:52:44.445Z,99945.08
2022-11-19T20:55:14.014Z,99944.33
2022-11-19T20:57:43.504Z,99936.89
2022-11-19T21:00:14.304Z,99946.44
2022-11-19T21:02:44.140Z,99945.63
2022-11-19T21:05:13.944Z,99941.48
2022-11-19T21:07:43.862Z,99946.34
2022-11-19T21:10:13.451Z,99947.20
2022-11-19T21:12:44.594Z,99936.52
2022-11-19T21:15:14.629Z,99944.78
2022-11-19T21:17:44.133Z,99942.17
2022-11-19T21:20:13.958Z,99938.89
2022-11-19T21:22:45.097Z,99939.58
2022-11-19T21:25:15.349Z,99940.57
2022-11-19T21:27:45.391Z,99934.60
2022-11-19T21:30:15.477Z,99936.09
2022-11-19T21:32:44.964Z,99944.03
2022-11-19T21:35:14.599Z,99938.45
2022-11-19T21:37:44.312Z,99940.57
2022-11-19T21:40:13.989Z,99939.53
2022-11-19T21:42:43.481Z,99936.97
2022-11-19T21:45:13.056Z,99932.37
2022-11-19T21:47:42.564Z,99935.83
2022-11-19T21:50:12.245Z,99933.85
2022-11-19T21:52:41.996Z,99936.34
2022-11-19T21:55:11.765Z,99928.41
2022-11-19T21:57:41.259Z,99929.28
2022-11-19T22:00:15.325Z,99928.55
2022-11-19T22:02:45.697Z,99929.75
2022-11-19T22:05:15.261Z,99935.07
2022-11-19T22:07:46.168Z,99934.40
2022-11-19T22:10:16.920Z,99934.00
2022-11-19T22:12:46.417Z,99937.02
2022-11-19T22:15:16.221Z,99942.36
2022-11-19T22:17:45.947Z,99933.02
2022-11-19T22:20:15.700Z,99936.41
2022-11-19T22:22:45.861Z,99940.28
2022-11-19T22:25:15.603Z,99933.81
2022-11-19T22:27:45.278Z,99943.69
2022-11-19T22:30:15.269Z,99939.09
2022-11-19T22:32:44.842Z,99936.27
2022-11-19T22:35:14.325Z,99941.67
2022-11-19T22:37:43.833Z,99944.68
2022-11-19T22:40:14.501Z,99949.66
2022-11-19T22:42:44.365Z,99949.60
2022-11-19T22:45:13.845Z,99957.71
2022-11-19T22:47:43.385Z,99957.31
2022-11-19T22:50:13.041Z,99952.99
2022-11-19T22:52:42.550Z,99957.09
2022-11-19T22:55:12.331Z,99953.88
2022-11-19T22:57:41.898Z,99947.75
2022-11-19T23:00:13.710Z,99956.30
2022-11-19T23:02:43.882Z,99949.82
2022-11-19T23:05:14.000Z,99954.55
2022-11-19T23:07:43.590Z,99950.59
2022-11-19T23:10:13.088Z,99947.52
2022-11-19T23:13:00.149Z,99944.48
2022-11-19T23:15:29.792Z,99939.33
2022-11-19T23:17:59.300Z,99934.17
2022-11-19T23:20:28.803Z,99935.45
2022-11-19T23:22:58.378Z,99930.82
2022-11-19T23:25:27.874Z,99938.05
2022-11-19T23:27:57.372Z,99932.55
2022-11-19T23:30:26.879Z,99937.38
2022-11-19T23:32:56.436Z,99937.73
2022-11-19T23:35:25.950Z,99933.96
2022-11-19T23:37:55.439Z,99938.73
2022-11-19T23:40:25.231Z,99935.76
2022-11-19T23:42:54.744Z,99935.76
2022-11-19T23:45:24.528Z,99930.16
2022-11-19T23:47:54.101Z,99930.16
2022-11-19T23:50:23.875Z,99925.89
2022-11-19T23:52:53.756Z,99929.66
2022-11-19T23:55:23.307Z,99927.52
2022-11-19T23:57:52.828Z,99928.55
